Time;durP1;ratioP1;P1;durP2;ratioP2;P2;SDS_P1;SDS_P2;PMS_P1;PMS_P2;Temp;Humidity;BMP_temperature;BMP_pressure;BME280_temperature;BME280_humidity;BME280_pressure;Samples;Min_cycle;Max_cycle;Signal;HPM_P1;HPM_P2
2021/05/25 00:01:19;;;;;;;;;7.00;7.00;;;;;;;;8726780;40;9984;-56
2021/05/25 00:07:21;;;;;;;;;9.00;8.00;;;;;;;;8726740;40;10030;-58
2021/05/25 00:13:23;;;;;;;;;9.00;8.00;;;;;;;;8727190;40;10052;-58
2021/05/25 00:19:25;;;;;;;;;7.33;7.00;;;;;;;;8727586;40;10069;-57
2021/05/25 00:25:31;;;;;;;;;9.33;8.33;;;;;;;;8727526;40;9969;-58
2021/05/25 00:31:33;;;;;;;;;8.00;8.00;;;;;;;;8726231;40;10005;-58
2021/05/25 00:37:35;;;;;;;;;11.00;9.00;;;;;;;;8726476;40;10145;-57
2021/05/25 00:43:37;;;;;;;;;9.67;9.67;;;;;;;;8726356;40;10061;-56
2021/05/25 00:49:39;;;;;;;;;9.00;9.00;;;;;;;;8725641;40;10033;-57
2021/05/25 00:55:41;;;;;;;;;11.33;10.00;;;;;;;;8726853;40;10346;-57
2021/05/25 01:01:44;;;;;;;;;10.00;10.00;;;;;;;;8726503;40;10638;-57
2021/05/25 01:07:46;;;;;;;;;9.33;9.33;;;;;;;;8703124;40;10042;-57
2021/05/25 01:13:51;;;;;;;;;11.00;10.33;;;;;;;;8702197;40;10070;-59
2021/05/25 01:19:54;;;;;;;;;12.67;12.33;;;;;;;;8702509;40;10030;-58
2021/05/25 01:25:56;;;;;;;;;10.00;9.67;;;;;;;;8702911;40;10557;-58
2021/05/25 01:31:57;;;;;;;;;12.67;12.00;;;;;;;;8701473;40;10100;-58
2021/05/25 01:38:03;;;;;;;;;8.67;8.67;;;;;;;;8702645;40;10279;-57
2021/05/25 01:44:05;;;;;;;;;13.00;12.67;;;;;;;;8701668;40;10007;-57
2021/05/25 01:50:12;;;;;;;;;12.67;12.67;;;;;;;;8702024;40;10014;-58
2021/05/25 01:56:16;;;;;;;;;12.00;12.00;;;;;;;;8702656;41;10210;-57
2021/05/25 02:02:18;;;;;;;;;13.33;11.33;;;;;;;;8707476;40;10009;-58
2021/05/25 02:08:21;;;;;;;;;10.00;10.00;;;;;;;;8728861;40;10027;-58
2021/05/25 02:14:23;;;;;;;;;8.33;8.33;;;;;;;;8729911;40;10907;-58
2021/05/25 02:20:26;;;;;;;;;8.67;8.33;;;;;;;;8728424;40;10147;-58
2021/05/25 02:26:28;;;;;;;;;13.33;11.33;;;;;;;;8727829;40;10104;-57
2021/05/25 02:32:30;;;;;;;;;12.00;12.00;;;;;;;;8729276;40;10087;-58
2021/05/25 02:38:32;;;;;;;;;15.33;14.00;;;;;;;;8730432;40;10255;-57
2021/05/25 02:44:34;;;;;;;;;13.00;12.67;;;;;;;;8727948;40;10041;-57
2021/05/25 02:50:37;;;;;;;;;14.33;12.67;;;;;;;;8727659;40;10023;-58
2021/05/25 02:56:40;;;;;;;;;14.33;14.33;;;;;;;;8730136;40;10017;-57
2021/05/25 03:02:42;;;;;;;;;11.33;10.33;;;;;;;;8728328;40;10005;-57
2021/05/25 03:08:44;;;;;;;;;13.00;12.00;;;;;;;;8728580;40;10636;-58
2021/05/25 03:14:47;;;;;;;;;16.67;16.67;;;;;;;;8718426;40;10631;-59
2021/05/25 03:20:49;;;;;;;;;13.67;13.67;;;;;;;;8727204;40;10592;-57
2021/05/25 03:26:52;;;;;;;;;15.67;15.67;;;;;;;;8729285;40;10052;-58
2021/05/25 03:32:55;;;;;;;;;13.33;11.67;;;;;;;;8727042;40;10211;-57
2021/05/25 03:38:57;;;;;;;;;15.33;14.33;;;;;;;;8743994;40;10050;-58
2021/05/25 03:44:59;;;;;;;;;12.67;12.67;;;;;;;;8751232;40;10125;-58
2021/05/25 03:51:02;;;;;;;;;13.00;12.33;;;;;;;;8751998;40;10623;-58
2021/05/25 04:03:35;;;;;;;;;16.67;13.33;;;;;;;;9730034;23;10656;-58
2021/05/25 04:09:37;;;;;;;;;17.00;14.67;;;;;;;;8728856;40;10093;-58
2021/05/25 04:15:51;;;;;;;;;12.67;12.67;;;;;;;;8732926;40;10470;-59
2021/05/25 04:21:53;;;;;;;;;13.00;13.00;;;;;;;;8730622;40;10162;-58
2021/05/25 04:27:56;;;;;;;;;15.33;14.00;;;;;;;;8717137;40;10055;-59
2021/05/25 04:33:58;;;;;;;;;14.00;14.00;;;;;;;;8707356;40;10068;-59
2021/05/25 04:40:00;;;;;;;;;16.33;16.33;;;;;;;;8717622;40;10194;-58
2021/05/25 04:46:03;;;;;;;;;15.67;13.67;;;;;;;;8731861;40;10494;-59
2021/05/25 04:52:05;;;;;;;;;13.67;13.67;;;;;;;;8730827;40;10145;-60
2021/05/25 04:58:07;;;;;;;;;9.67;8.67;;;;;;;;8729789;40;10682;-59
2021/05/25 05:04:09;;;;;;;;;11.67;11.33;;;;;;;;8728528;40;10348;-61
2021/05/25 05:10:11;;;;;;;;;10.67;10.67;;;;;;;;8728399;40;10687;-59
2021/05/25 05:16:14;;;;;;;;;13.33;13.33;;;;;;;;8728422;40;10404;-60
2021/05/25 05:22:16;;;;;;;;;13.33;11.33;;;;;;;;8726176;40;10074;-59
2021/05/25 05:28:18;;;;;;;;;8.67;8.67;;;;;;;;8728776;40;10597;-60
2021/05/25 05:34:20;;;;;;;;;11.00;11.00;;;;;;;;8726236;40;10632;-60
2021/05/25 05:40:22;;;;;;;;;13.00;13.00;;;;;;;;8726009;40;10081;-60
2021/05/25 05:46:39;;;;;;;;;9.33;8.67;;;;;;;;8727009;40;11038;-59
2021/05/25 05:52:42;;;;;;;;;12.67;12.67;;;;;;;;8725404;40;10899;-59
2021/05/25 05:58:44;;;;;;;;;10.00;10.00;;;;;;;;8727480;40;10860;-60
2021/05/25 06:04:46;;;;;;;;;13.25;11.50;;;;;;;;8727090;40;10911;-60
2021/05/25 06:10:51;;;;;;;;;8.75;8.75;;;;;;;;8727066;40;10821;-60
2021/05/25 06:16:54;;;;;;;;;8.00;8.00;;;;;;;;8727344;40;10902;-62
2021/05/25 06:22:55;;;;;;;;;6.00;6.00;;;;;;;;8727004;40;10959;-61
2021/05/25 06:28:57;;;;;;;;;9.75;8.75;;;;;;;;8749687;40;10694;-60
2021/05/25 06:34:59;;;;;;;;;27.00;24.67;;;;;;;;8727393;40;10698;-59
2021/05/25 06:41:01;;;;;;;;;9.00;9.00;;;;;;;;8701591;40;11334;-60
2021/05/25 06:47:03;;;;;;;;;22.25;19.00;;;;;;;;8721334;40;10745;-60
2021/05/25 06:53:05;;;;;;;;;17.00;16.50;;;;;;;;8729823;40;10673;-61
2021/05/25 06:59:07;;;;;;;;;10.00;10.00;;;;;;;;8732198;40;10672;-60
2021/05/25 07:05:10;;;;;;;;;11.00;8.75;;;;;;;;8710104;40;10627;-61
2021/05/25 07:11:12;;;;;;;;;10.00;9.00;;;;;;;;8701326;40;10764;-62
2021/05/25 07:17:14;;;;;;;;;12.25;10.25;;;;;;;;8726756;40;10811;-61
2021/05/25 07:23:16;;;;;;;;;11.25;10.25;;;;;;;;8750153;40;10819;-60
2021/05/25 07:29:19;;;;;;;;;10.25;9.00;;;;;;;;8750058;40;10627;-61
2021/05/25 07:35:21;;;;;;;;;15.00;12.25;;;;;;;;8749019;40;10824;-61
2021/05/25 07:41:23;;;;;;;;;12.75;9.50;;;;;;;;8750272;40;10594;-62
2021/05/25 07:47:29;;;;;;;;;9.25;9.25;;;;;;;;8726938;40;10842;-59
2021/05/25 07:53:32;;;;;;;;;15.00;13.75;;;;;;;;8716679;40;10933;-62
2021/05/25 07:59:36;;;;;;;;;13.25;10.75;;;;;;;;8704024;40;10933;-60
2021/05/25 08:05:38;;;;;;;;;9.75;9.75;;;;;;;;8697876;41;10977;-62
2021/05/25 08:11:40;;;;;;;;;8.00;8.00;;;;;;;;8701516;40;10937;-61
2021/05/25 08:23:49;;;;;;;;;9.25;8.75;;;;;;;;8748946;40;11611;-62
2021/05/25 08:29:51;;;;;;;;;8.50;8.50;;;;;;;;8746672;40;10727;-60
2021/05/25 08:35:53;;;;;;;;;12.75;10.25;;;;;;;;8749187;40;11290;-59
2021/05/25 08:41:55;;;;;;;;;11.00;8.75;;;;;;;;8748527;40;10781;-61
2021/05/25 08:47:58;;;;;;;;;10.75;9.25;;;;;;;;8749054;40;10876;-64
2021/05/25 08:54:21;;;;;;;;;13.00;8.75;;;;;;;;8747777;40;10886;-58
2021/05/25 09:00:25;;;;;;;;;11.25;11.25;;;;;;;;8748541;40;10873;-61
2021/05/25 09:06:47;;;;;;;;;10.00;10.00;;;;;;;;8707853;40;10664;-60
2021/05/25 09:12:52;;;;;;;;;10.00;10.00;;;;;;;;8706991;40;10710;-60
2021/05/25 09:18:58;;;;;;;;;15.00;15.00;;;;;;;;8722245;40;10062;-60
2021/05/25 09:25:21;;;;;;;;;15.00;15.00;;;;;;;;8723459;40;10170;-59
2021/05/25 09:31:39;;;;;;;;;14.00;13.67;;;;;;;;8722490;40;10140;-61
2021/05/25 09:37:43;;;;;;;;;15.33;13.33;;;;;;;;8715409;40;10301;-61
2021/05/25 09:43:53;;;;;;;;;15.33;15.33;;;;;;;;8700016;40;10616;-63
2021/05/25 09:49:59;;;;;;;;;21.00;19.33;;;;;;;;8699167;40;10279;-61
2021/05/25 09:56:04;;;;;;;;;27.33;27.33;;;;;;;;8721856;40;10234;-61
2021/05/25 10:02:20;;;;;;;;;21.00;21.00;;;;;;;;8711479;40;10235;-61
2021/05/25 10:08:24;;;;;;;;;33.67;31.33;;;;;;;;8716325;40;10228;-61
2021/05/25 10:14:27;;;;;;;;;47.33;39.33;;;;;;;;8719840;40;10177;-60
2021/05/25 10:20:31;;;;;;;;;29.33;26.67;;;;;;;;8721272;40;10181;-60
2021/05/25 10:26:35;;;;;;;;;38.00;35.00;;;;;;;;8716660;40;10162;-61
2021/05/25 10:32:39;;;;;;;;;19.00;16.33;;;;;;;;8725901;40;10159;-62
2021/05/25 10:38:43;;;;;;;;;20.00;16.67;;;;;;;;8725963;40;10166;-62
2021/05/25 10:45:01;;;;;;;;;13.00;13.00;;;;;;;;8716359;40;10774;-60
2021/05/25 10:51:03;;;;;;;;;15.75;15.75;;;;;;;;8702803;40;11137;-60
2021/05/25 10:57:29;;;;;;;;;14.25;14.25;;;;;;;;8702018;40;11037;-61
2021/05/25 11:03:31;;;;;;;;;15.00;13.00;;;;;;;;8702539;40;10921;-62
2021/05/25 11:09:33;;;;;;;;;13.25;13.00;;;;;;;;8709848;40;11242;-62
2021/05/25 11:15:55;;;;;;;;;16.75;13.75;;;;;;;;8716146;40;10786;-60
2021/05/25 11:22:07;;;;;;;;;14.50;14.50;;;;;;;;8718599;40;11046;-61
2021/05/25 11:28:09;;;;;;;;;14.00;11.75;;;;;;;;8725617;40;11058;-62
2021/05/25 11:34:11;;;;;;;;;14.25;13.25;;;;;;;;8724749;40;10861;-62
2021/05/25 11:40:16;;;;;;;;;14.50;14.50;;;;;;;;8712694;40;10891;-63
2021/05/25 11:46:18;;;;;;;;;19.25;15.25;;;;;;;;8700887;40;10883;-63
2021/05/25 11:52:21;;;;;;;;;11.25;10.00;;;;;;;;8716823;40;10791;-61
2021/05/25 11:58:23;;;;;;;;;11.25;11.25;;;;;;;;8723521;40;10928;-62
2021/05/25 12:04:30;;;;;;;;;16.75;16.00;;;;;;;;8701007;40;11433;-61
2021/05/25 12:10:37;;;;;;;;;21.25;16.25;;;;;;;;8715651;40;10949;-61
2021/05/25 12:16:42;;;;;;;;;12.50;12.00;;;;;;;;8725161;40;10800;-62
2021/05/25 12:22:54;;;;;;;;;16.50;13.25;;;;;;;;8721241;40;11194;-61
2021/05/25 12:28:57;;;;;;;;;17.25;15.50;;;;;;;;8705149;40;10644;-61
2021/05/25 12:35:00;;;;;;;;;14.00;14.00;;;;;;;;8706282;40;10608;-61
2021/05/25 12:41:02;;;;;;;;;16.75;16.75;;;;;;;;8699615;40;10662;-63
2021/05/25 12:47:08;;;;;;;;;16.00;16.00;;;;;;;;8699241;40;10818;-61
2021/05/25 12:53:14;;;;;;;;;21.00;14.50;;;;;;;;8698497;41;10626;-61
2021/05/25 12:59:17;;;;;;;;;19.25;13.00;;;;;;;;8700581;40;10668;-61
2021/05/25 13:05:32;;;;;;;;;17.00;16.00;;;;;;;;8703541;40;11249;-61
2021/05/25 13:11:34;;;;;;;;;16.75;14.00;;;;;;;;8716847;40;10635;-61
2021/05/25 13:17:48;;;;;;;;;15.75;13.50;;;;;;;;8722248;40;10582;-59
2021/05/25 13:23:54;;;;;;;;;19.25;16.50;;;;;;;;8721785;40;10763;-61
2021/05/25 13:30:09;;;;;;;;;20.75;17.75;;;;;;;;8721653;40;10641;-61
2021/05/25 13:36:11;;;;;;;;;18.75;18.75;;;;;;;;8718459;40;10776;-61
2021/05/25 13:42:13;;;;;;;;;16.50;16.50;;;;;;;;8704534;40;10739;-59
2021/05/25 13:48:15;;;;;;;;;17.50;17.50;;;;;;;;8699407;40;11341;-61
2021/05/25 13:54:17;;;;;;;;;16.25;16.25;;;;;;;;8704425;40;10694;-61
2021/05/25 14:00:36;;;;;;;;;18.50;17.00;;;;;;;;8720942;40;10610;-62
2021/05/25 14:06:38;;;;;;;;;21.50;20.00;;;;;;;;8728485;40;11461;-61
2021/05/25 14:12:41;;;;;;;;;19.25;19.25;;;;;;;;8727398;40;10580;-62
2021/05/25 14:18:43;;;;;;;;;21.25;18.75;;;;;;;;8717901;40;10516;-61
2021/05/25 14:24:45;;;;;;;;;16.25;16.25;;;;;;;;8704053;41;10712;-60
2021/05/25 14:30:48;;;;;;;;;15.75;15.75;;;;;;;;8705413;40;10538;-60
2021/05/25 14:36:50;;;;;;;;;18.00;18.00;;;;;;;;8704118;40;10660;-61
2021/05/25 14:42:54;;;;;;;;;15.25;15.25;;;;;;;;8704455;40;10588;-60
2021/05/25 14:48:56;;;;;;;;;17.50;14.50;;;;;;;;8705208;40;10583;-61
2021/05/25 14:55:00;;;;;;;;;19.25;19.25;;;;;;;;8703816;40;11348;-60
2021/05/25 15:01:06;;;;;;;;;13.75;13.00;;;;;;;;8704215;40;10605;-61
2021/05/25 15:07:19;;;;;;;;;17.25;17.00;;;;;;;;8705202;40;10834;-60
2021/05/25 15:13:21;;;;;;;;;16.00;16.00;;;;;;;;8713640;40;10537;-62
2021/05/25 15:19:23;;;;;;;;;18.00;18.00;;;;;;;;8727924;40;10596;-59
2021/05/25 15:25:25;;;;;;;;;22.00;17.25;;;;;;;;8720013;40;10608;-62
2021/05/25 15:31:27;;;;;;;;;18.75;17.00;;;;;;;;8703619;40;10582;-61
2021/05/25 15:37:29;;;;;;;;;18.25;17.00;;;;;;;;8703375;40;10644;-61
2021/05/25 15:43:32;;;;;;;;;16.25;16.25;;;;;;;;8704661;40;10589;-61
2021/05/25 15:49:34;;;;;;;;;22.75;20.00;;;;;;;;8703044;41;10589;-60
2021/05/25 15:55:40;;;;;;;;;19.00;19.00;;;;;;;;8703250;40;10622;-59
2021/05/25 16:01:43;;;;;;;;;18.00;18.00;;;;;;;;8709831;40;10888;-62
2021/05/25 16:07:45;;;;;;;;;19.25;17.75;;;;;;;;8720022;40;10857;-61
2021/05/25 16:13:47;;;;;;;;;21.25;21.00;;;;;;;;8702857;40;10718;-65
2021/05/25 16:19:49;;;;;;;;;20.50;19.25;;;;;;;;8703818;40;11241;-59
2021/05/25 16:25:50;;;;;;;;;22.00;19.25;;;;;;;;8702879;40;10896;-59
2021/05/25 16:31:52;;;;;;;;;25.00;22.25;;;;;;;;8702659;40;11238;-61
2021/05/25 16:37:54;;;;;;;;;22.25;20.00;;;;;;;;8702586;40;11461;-61
2021/05/25 16:43:56;;;;;;;;;19.75;19.75;;;;;;;;8702213;40;10820;-60
2021/05/25 16:50:08;;;;;;;;;21.25;19.75;;;;;;;;8702220;40;11055;-58
2021/05/25 16:56:10;;;;;;;;;19.00;18.75;;;;;;;;8702516;40;10663;-59
2021/05/25 17:02:21;;;;;;;;;20.75;19.50;;;;;;;;8702773;40;10833;-60
2021/05/25 17:20:29;;;;;;;;;16.50;16.50;;;;;;;;8701995;41;10860;-60
2021/05/25 17:33:03;;;;;;;;;19.00;18.00;;;;;;;;8723954;40;10851;-60
2021/05/25 17:39:07;;;;;;;;;18.25;17.00;;;;;;;;8725568;40;11128;-61
2021/05/25 17:45:09;;;;;;;;;16.00;15.75;;;;;;;;8725611;40;11572;-61
2021/05/25 17:51:12;;;;;;;;;16.50;16.50;;;;;;;;8726249;40;10903;-63
2021/05/25 17:57:14;;;;;;;;;17.75;17.50;;;;;;;;8725065;40;11201;-60
2021/05/25 18:03:16;;;;;;;;;15.00;15.00;;;;;;;;8724802;40;10627;-60
2021/05/25 18:09:18;;;;;;;;;14.33;14.00;;;;;;;;8724622;40;10660;-59
2021/05/25 18:15:22;;;;;;;;;18.00;16.67;;;;;;;;8723318;40;10274;-59
2021/05/25 18:21:24;;;;;;;;;18.00;18.00;;;;;;;;8724826;40;10136;-61
2021/05/25 18:27:28;;;;;;;;;18.67;17.00;;;;;;;;8724681;40;10719;-59
2021/05/25 18:46:07;;;;;;;;;19.67;18.33;;;;;;;;8726181;40;10285;-61
2021/05/25 18:52:16;;;;;;;;;21.00;17.00;;;;;;;;8729312;40;10756;-59
2021/05/25 19:04:30;;;;;;;;;18.75;17.50;;;;;;;;8728303;40;11025;-59
2021/05/25 19:10:32;;;;;;;;;18.33;18.00;;;;;;;;8728878;40;11108;-60
2021/05/25 19:16:34;;;;;;;;;20.67;19.67;;;;;;;;8729701;40;10113;-60
2021/05/25 19:22:53;;;;;;;;;17.67;17.67;;;;;;;;8727533;40;10139;-59
2021/05/25 19:28:56;;;;;;;;;21.67;20.00;;;;;;;;8727048;40;10081;-62
2021/05/25 19:34:58;;;;;;;;;20.67;19.33;;;;;;;;8728345;40;10168;-60
2021/05/25 19:41:04;;;;;;;;;20.67;18.00;;;;;;;;8727670;40;10264;-60
2021/05/25 19:47:06;;;;;;;;;20.00;17.33;;;;;;;;8727316;40;10116;-58
2021/05/25 19:53:08;;;;;;;;;24.00;21.33;;;;;;;;8727242;40;10494;-60
2021/05/25 19:59:11;;;;;;;;;20.00;19.67;;;;;;;;8727218;40;10072;-59
2021/05/25 20:05:14;;;;;;;;;21.67;21.67;;;;;;;;8727559;40;10101;-59
2021/05/25 20:11:16;;;;;;;;;26.67;24.00;;;;;;;;8728318;40;10132;-59
2021/05/25 20:17:18;;;;;;;;;23.00;23.00;;;;;;;;8727644;40;10213;-58
2021/05/25 20:23:20;;;;;;;;;25.00;20.67;;;;;;;;8727810;40;10116;-59
2021/05/25 20:29:22;;;;;;;;;21.33;18.33;;;;;;;;8726015;40;10074;-59
2021/05/25 20:41:46;;;;;;;;;23.00;22.00;;;;;;;;8726532;40;10118;-59
2021/05/25 20:47:51;;;;;;;;;20.00;20.00;;;;;;;;8726056;40;10080;-58
2021/05/25 20:53:53;;;;;;;;;23.33;23.33;;;;;;;;8727357;40;10105;-60
2021/05/25 20:59:55;;;;;;;;;28.00;23.67;;;;;;;;8725970;40;10064;-60
2021/05/25 21:05:57;;;;;;;;;26.67;24.67;;;;;;;;8711135;40;10197;-59
2021/05/25 21:11:59;;;;;;;;;21.33;21.33;;;;;;;;8701657;40;11319;-60
2021/05/25 21:18:02;;;;;;;;;22.67;19.33;;;;;;;;8701906;40;10102;-60
2021/05/25 21:24:05;;;;;;;;;23.33;22.00;;;;;;;;8701382;41;10189;-59
2021/05/25 21:30:07;;;;;;;;;23.33;20.67;;;;;;;;8701660;40;10104;-58
2021/05/25 21:36:09;;;;;;;;;25.00;23.67;;;;;;;;8701844;40;10173;-59
2021/05/25 21:42:11;;;;;;;;;25.00;21.67;;;;;;;;8702562;40;10159;-60
2021/05/25 21:48:13;;;;;;;;;26.00;21.67;;;;;;;;8701414;40;10117;-58
2021/05/25 21:54:18;;;;;;;;;23.67;21.67;;;;;;;;8700432;41;10164;-58
2021/05/25 22:00:20;;;;;;;;;26.00;21.67;;;;;;;;8700240;41;10142;-58
2021/05/25 22:06:22;;;;;;;;;22.67;22.67;;;;;;;;8702065;40;10183;-60
2021/05/25 22:12:24;;;;;;;;;23.67;23.67;;;;;;;;8701409;40;10150;-58
2021/05/25 22:18:27;;;;;;;;;25.33;23.67;;;;;;;;8705552;40;10185;-60
2021/05/25 22:24:31;;;;;;;;;24.33;23.00;;;;;;;;8704825;40;10097;-59
2021/05/25 22:30:35;;;;;;;;;17.33;17.33;;;;;;;;8704568;40;10741;-58
2021/05/25 22:36:37;;;;;;;;;24.33;22.00;;;;;;;;8705358;40;10141;-64
2021/05/25 22:42:40;;;;;;;;;18.33;17.00;;;;;;;;8705016;40;10138;-58
2021/05/25 22:48:42;;;;;;;;;23.00;22.00;;;;;;;;8704549;40;10173;-59
2021/05/25 22:54:45;;;;;;;;;27.00;23.00;;;;;;;;8704561;40;10152;-59
2021/05/25 23:00:47;;;;;;;;;17.00;17.00;;;;;;;;8704767;40;10303;-58
2021/05/25 23:06:49;;;;;;;;;18.67;18.67;;;;;;;;8704796;40;10315;-59
2021/05/25 23:12:51;;;;;;;;;19.67;19.67;;;;;;;;8703826;40;10177;-57
2021/05/25 23:18:53;;;;;;;;;23.00;19.67;;;;;;;;8704919;40;10695;-58
2021/05/25 23:24:55;;;;;;;;;18.33;16.00;;;;;;;;8703083;41;10168;-57
2021/05/25 23:30:57;;;;;;;;;19.00;19.00;;;;;;;;8704449;40;10176;-59
2021/05/25 23:36:59;;;;;;;;;17.67;15.67;;;;;;;;8704154;40;10355;-58
2021/05/25 23:43:01;;;;;;;;;21.00;19.33;;;;;;;;8703631;40;10262;-58
2021/05/25 23:49:04;;;;;;;;;20.00;18.67;;;;;;;;8703947;40;10649;-59
2021/05/25 23:55:07;;;;;;;;;13.33;12.33;;;;;;;;8704386;40;10664;-58
